sensor_id;sensor_type;location;lat;lon;timestamp;pressure;altitude;pressure_sealevel;temperature;humidity
5284;BME280;15377;48.540;9.268;2023-04-07T00:00:49;97473.28;;;6.41;100.00
5284;BME280;15377;48.540;9.268;2023-04-07T00:03:15;97469.38;;;6.42;100.00
5284;BME280;15377;48.540;9.268;2023-04-07T00:05:40;97463.00;;;6.45;100.00
5284;BME280;15377;48.540;9.268;2023-04-07T00:08:05;97456.66;;;6.48;100.00
5284;BME280;15377;48.540;9.268;2023-04-07T00:10:31;97464.00;;;6.51;100.00
5284;BME280;15377;48.540;9.268;2023-04-07T00:12:57;97458.06;;;6.52;100.00
5284;BME280;15377;48.540;9.268;2023-04-07T00:15:22;97454.13;;;6.53;100.00
5284;BME280;15377;48.540;9.268;2023-04-07T00:17:48;97457.63;;;6.54;100.00
5284;BME280;15377;48.540;9.268;2023-04-07T00:20:13;97464.94;;;6.57;100.00
5284;BME280;15377;48.540;9.268;2023-04-07T00:22:39;97444.19;;;6.47;100.00
5284;BME280;15377;48.540;9.268;2023-04-07T00:25:04;97451.59;;;6.59;100.00
5284;BME280;15377;48.540;9.268;2023-04-07T00:27:30;97446.44;;;6.61;100.00
5284;BME280;15377;48.540;9.268;2023-04-07T00:29:56;97448.53;;;6.57;100.00
5284;BME280;15377;48.540;9.268;2023-04-07T00:32:21;97442.75;;;6.55;100.00
5284;BME280;15377;48.540;9.268;2023-04-07T00:34:47;97434.53;;;6.55;100.00
5284;BME280;15377;48.540;9.268;2023-04-07T00:37:12;97432.47;;;6.59;100.00
5284;BME280;15377;48.540;9.268;2023-04-07T00:39:37;97445.53;;;6.64;100.00
5284;BME280;15377;48.540;9.268;2023-04-07T00:42:03;97431.25;;;6.60;100.00
5284;BME280;15377;48.540;9.268;2023-04-07T00:44:30;97436.28;;;6.61;100.00
5284;BME280;15377;48.540;9.268;2023-04-07T00:46:56;97431.13;;;6.63;100.00
5284;BME280;15377;48.540;9.268;2023-04-07T00:49:21;97430.28;;;6.54;100.00
5284;BME280;15377;48.540;9.268;2023-04-07T00:51:46;97413.03;;;6.44;100.00
5284;BME280;15377;48.540;9.268;2023-04-07T00:54:12;97408.91;;;6.40;100.00
5284;BME280;15377;48.540;9.268;2023-04-07T00:56:37;97418.38;;;6.48;100.00
5284;BME280;15377;48.540;9.268;2023-04-07T00:59:03;97425.84;;;6.47;100.00
5284;BME280;15377;48.540;9.268;2023-04-07T01:07:26;97389.78;;;6.40;100.00
5284;BME280;15377;48.540;9.268;2023-04-07T01:09:56;97399.59;;;6.50;100.00
5284;BME280;15377;48.540;9.268;2023-04-07T01:12:35;97391.06;;;6.48;100.00
5284;BME280;15377;48.540;9.268;2023-04-07T01:15:10;97386.97;;;6.52;100.00
5284;BME280;15377;48.540;9.268;2023-04-07T01:17:38;97382.84;;;6.48;100.00
5284;BME280;15377;48.540;9.268;2023-04-07T01:20:10;97377.13;;;6.55;100.00
5284;BME280;15377;48.540;9.268;2023-04-07T01:22:43;97382.16;;;6.56;100.00
5284;BME280;15377;48.540;9.268;2023-04-07T01:28:02;97382.03;;;6.60;100.00
5284;BME280;15377;48.540;9.268;2023-04-07T01:30:37;97379.63;;;6.62;100.00
5284;BME280;15377;48.540;9.268;2023-04-07T01:33:04;97388.00;;;6.67;100.00
5284;BME280;15377;48.540;9.268;2023-04-07T01:35:32;97377.19;;;6.64;100.00
5284;BME280;15377;48.540;9.268;2023-04-07T01:37:59;97366.25;;;6.64;100.00
5284;BME280;15377;48.540;9.268;2023-04-07T01:40:26;97364.72;;;6.63;100.00
5284;BME280;15377;48.540;9.268;2023-04-07T01:42:52;97365.38;;;6.67;100.00
5284;BME280;15377;48.540;9.268;2023-04-07T01:45:19;97368.53;;;6.65;100.00
5284;BME280;15377;48.540;9.268;2023-04-07T01:47:45;97359.22;;;6.54;100.00
5284;BME280;15377;48.540;9.268;2023-04-07T01:50:11;97376.56;;;6.60;100.00
5284;BME280;15377;48.540;9.268;2023-04-07T01:52:37;97368.06;;;6.58;100.00
5284;BME280;15377;48.540;9.268;2023-04-07T01:55:05;97366.72;;;6.62;100.00
5284;BME280;15377;48.540;9.268;2023-04-07T01:57:30;97360.53;;;6.71;100.00
5284;BME280;15377;48.540;9.268;2023-04-07T01:59:56;97365.88;;;6.74;100.00
5284;BME280;15377;48.540;9.268;2023-04-07T02:02:21;97368.16;;;6.76;100.00
5284;BME280;15377;48.540;9.268;2023-04-07T02:04:59;97335.25;;;6.58;100.00
5284;BME280;15377;48.540;9.268;2023-04-07T02:07:38;97352.31;;;6.71;100.00
5284;BME280;15377;48.540;9.268;2023-04-07T02:10:08;97355.69;;;6.75;100.00
5284;BME280;15377;48.540;9.268;2023-04-07T02:12:36;97340.16;;;6.72;100.00
5284;BME280;15377;48.540;9.268;2023-04-07T02:15:02;97355.09;;;6.80;100.00
5284;BME280;15377;48.540;9.268;2023-04-07T02:17:29;97346.59;;;6.78;100.00
5284;BME280;15377;48.540;9.268;2023-04-07T02:19:58;97346.91;;;6.80;100.00
5284;BME280;15377;48.540;9.268;2023-04-07T02:22:24;97341.13;;;6.78;100.00
5284;BME280;15377;48.540;9.268;2023-04-07T02:24:50;97349.19;;;6.81;100.00
5284;BME280;15377;48.540;9.268;2023-04-07T02:27:16;97346.59;;;6.78;100.00
5284;BME280;15377;48.540;9.268;2023-04-07T02:29:41;97345.50;;;6.75;100.00
5284;BME280;15377;48.540;9.268;2023-04-07T02:32:07;97347.81;;;6.77;100.00
5284;BME280;15377;48.540;9.268;2023-04-07T02:34:32;97349.31;;;6.78;100.00
5284;BME280;15377;48.540;9.268;2023-04-07T02:36:57;97352.38;;;6.80;100.00
5284;BME280;15377;48.540;9.268;2023-04-07T02:39:23;97355.75;;;6.84;100.00
5284;BME280;15377;48.540;9.268;2023-04-07T02:41:48;97347.03;;;6.76;100.00
5284;BME280;15377;48.540;9.268;2023-04-07T02:44:13;97345.38;;;6.79;100.00
5284;BME280;15377;48.540;9.268;2023-04-07T02:46:39;97347.03;;;6.76;100.00
5284;BME280;15377;48.540;9.268;2023-04-07T02:49:05;97349.31;;;6.78;100.00
5284;BME280;15377;48.540;9.268;2023-04-07T02:51:31;97345.72;;;6.81;100.00
5284;BME280;15377;48.540;9.268;2023-04-07T02:53:56;97335.97;;;6.80;100.00
5284;BME280;15377;48.540;9.268;2023-04-07T02:56:21;97338.25;;;6.81;100.00
5284;BME280;15377;48.540;9.268;2023-04-07T02:58:47;97333.56;;;6.82;100.00
5284;BME280;15377;48.540;9.268;2023-04-07T03:01:12;97326.56;;;6.81;100.00
5284;BME280;15377;48.540;9.268;2023-04-07T03:03:38;97321.09;;;6.81;100.00
5284;BME280;15377;48.540;9.268;2023-04-07T03:06:04;97314.56;;;6.78;100.00
5284;BME280;15377;48.540;9.268;2023-04-07T03:08:29;97320.19;;;6.84;100.00
5284;BME280;15377;48.540;9.268;2023-04-07T03:10:55;97318.03;;;6.79;100.00
5284;BME280;15377;48.540;9.268;2023-04-07T03:13:20;97321.28;;;6.86;100.00
5284;BME280;15377;48.540;9.268;2023-04-07T03:15:46;97315.94;;;6.83;100.00
5284;BME280;15377;48.540;9.268;2023-04-07T03:18:11;97301.00;;;6.75;100.00
5284;BME280;15377;48.540;9.268;2023-04-07T03:20:37;97323.66;;;6.84;100.00
5284;BME280;15377;48.540;9.268;2023-04-07T03:23:02;97314.84;;;6.80;100.00
5284;BME280;15377;48.540;9.268;2023-04-07T03:25:28;97303.91;;;6.80;100.00
5284;BME280;15377;48.540;9.268;2023-04-07T03:27:53;97312.00;;;6.84;100.00
5284;BME280;15377;48.540;9.268;2023-04-07T03:30:19;97311.69;;;6.82;100.00
5284;BME280;15377;48.540;9.268;2023-04-07T03:32:45;97297.38;;;6.78;100.00
5284;BME280;15377;48.540;9.268;2023-04-07T03:35:10;97296.41;;;6.72;100.00
5284;BME280;15377;48.540;9.268;2023-04-07T03:37:35;97288.81;;;6.67;100.00
5284;BME280;15377;48.540;9.268;2023-04-07T03:40:01;97282.09;;;6.59;100.00
5284;BME280;15377;48.540;9.268;2023-04-07T03:42:26;97282.09;;;6.59;100.00
5284;BME280;15377;48.540;9.268;2023-04-07T03:44:52;97288.66;;;6.61;100.00
5284;BME280;15377;48.540;9.268;2023-04-07T03:47:17;97277.50;;;6.56;100.00
5284;BME280;15377;48.540;9.268;2023-04-07T03:49:43;97283.63;;;6.60;100.00
5284;BME280;15377;48.540;9.268;2023-04-07T03:52:08;97269.25;;;6.47;100.00
5284;BME280;15377;48.540;9.268;2023-04-07T03:54:34;97284.66;;;6.53;100.00
5284;BME280;15377;48.540;9.268;2023-04-07T03:56:59;97275.63;;;6.44;100.00
5284;BME280;15377;48.540;9.268;2023-04-07T03:59:26;97275.63;;;6.44;100.00
5284;BME280;15377;48.540;9.268;2023-04-07T04:01:52;97273.22;;;6.46;100.00
5284;BME280;15377;48.540;9.268;2023-04-07T04:04:17;97264.06;;;6.40;100.00
5284;BME280;15377;48.540;9.268;2023-04-07T04:06:43;97274.13;;;6.43;100.00
5284;BME280;15377;48.540;9.268;2023-04-07T04:09:08;97279.25;;;6.41;100.00
5284;BME280;15377;48.540;9.268;2023-04-07T04:11:33;97275.00;;;6.40;100.00
5284;BME280;15377;48.540;9.268;2023-04-07T04:13:59;97272.22;;;6.31;100.00
5284;BME280;15377;48.540;9.268;2023-04-07T04:16:24;97282.69;;;6.32;100.00
5284;BME280;15377;48.540;9.268;2023-04-07T04:18:49;97256.31;;;6.17;100.00
5284;BME280;15377;48.540;9.268;2023-04-07T04:21:15;97267.66;;;6.28;100.00
5284;BME280;15377;48.540;9.268;2023-04-07T04:23:40;97264.59;;;6.26;100.00
5284;BME280;15377;48.540;9.268;2023-04-07T04:26:05;97256.97;;;6.21;100.00
5284;BME280;15377;48.540;9.268;2023-04-07T04:28:31;97243.44;;;6.17;100.00
5284;BME280;15377;48.540;9.268;2023-04-07T04:30:56;97252.25;;;6.21;100.00
5284;BME280;15377;48.540;9.268;2023-04-07T04:33:22;97254.69;;;6.19;100.00
5284;BME280;15377;48.540;9.268;2023-04-07T04:35:47;97246.59;;;6.16;100.00
5284;BME280;15377;48.540;9.268;2023-04-07T04:38:12;97243.25;;;6.12;100.00
5284;BME280;15377;48.540;9.268;2023-04-07T04:40:38;97247.69;;;6.18;100.00
5284;BME280;15377;48.540;9.268;2023-04-07T04:43:03;97246.00;;;6.12;100.00
5284;BME280;15377;48.540;9.268;2023-04-07T04:45:33;97257.22;;;6.14;100.00
5284;BME280;15377;48.540;9.268;2023-04-07T04:47:58;97235.63;;;6.07;100.00
5284;BME280;15377;48.540;9.268;2023-04-07T04:50:24;97247.19;;;6.11;100.00
5284;BME280;15377;48.540;9.268;2023-04-07T04:52:49;97257.22;;;6.14;100.00
5284;BME280;15377;48.540;9.268;2023-04-07T04:55:15;97269.94;;;6.08;100.00
5284;BME280;15377;48.540;9.268;2023-04-07T04:57:40;97259.38;;;5.97;100.00
5284;BME280;15377;48.540;9.268;2023-04-07T05:00:06;97256.22;;;5.99;100.00
5284;BME280;15377;48.540;9.268;2023-04-07T05:02:32;97253.16;;;5.97;100.00
5284;BME280;15377;48.540;9.268;2023-04-07T05:04:57;97260.03;;;6.01;100.00
5284;BME280;15377;48.540;9.268;2023-04-07T05:07:23;97254.44;;;6.05;100.00
5284;BME280;15377;48.540;9.268;2023-04-07T05:09:49;97254.44;;;6.05;100.00
5284;BME280;15377;48.540;9.268;2023-04-07T05:12:15;97261.72;;;6.08;100.00
5284;BME280;15377;48.540;9.268;2023-04-07T05:14:40;97256.59;;;6.10;100.00
5284;BME280;15377;48.540;9.268;2023-04-07T05:17:05;97262.06;;;6.10;100.00
5284;BME280;15377;48.540;9.268;2023-04-07T05:19:31;97268.28;;;6.10;100.00
5284;BME280;15377;48.540;9.268;2023-04-07T05:21:57;97268.97;;;6.02;100.00
5284;BME280;15377;48.540;9.268;2023-04-07T05:24:23;97275.63;;;6.01;100.00
5284;BME280;15377;48.540;9.268;2023-04-07T05:26:50;97271.44;;;6.09;100.00
5284;BME280;15377;48.540;9.268;2023-04-07T05:29:15;97273.88;;;6.07;100.00
5284;BME280;15377;48.540;9.268;2023-04-07T05:31:40;97266.69;;;6.00;100.00
5284;BME280;15377;48.540;9.268;2023-04-07T05:34:06;97261.84;;;6.04;100.00
5284;BME280;15377;48.540;9.268;2023-04-07T05:36:32;97264.66;;;6.13;100.00
5284;BME280;15377;48.540;9.268;2023-04-07T05:38:58;97257.47;;;6.07;100.00
5284;BME280;15377;48.540;9.268;2023-04-07T05:41:23;97263.59;;;6.11;100.00
5284;BME280;15377;48.540;9.268;2023-04-07T05:43:48;97255.72;;;6.13;100.00
5284;BME280;15377;48.540;9.268;2023-04-07T05:46:14;97264.22;;;6.15;100.00
5284;BME280;15377;48.540;9.268;2023-04-07T05:48:39;97261.03;;;6.16;100.00
5284;BME280;15377;48.540;9.268;2023-04-07T05:51:05;97268.25;;;6.32;100.00
5284;BME280;15377;48.540;9.268;2023-04-07T05:53:30;97264.00;;;6.31;100.00
5284;BME280;15377;48.540;9.268;2023-04-07T05:55:55;97268.13;;;6.35;100.00
5284;BME280;15377;48.540;9.268;2023-04-07T05:58:21;97270.16;;;6.44;100.00
5284;BME280;15377;48.540;9.268;2023-04-07T06:00:46;97277.16;;;6.45;100.00
5284;BME280;15377;48.540;9.268;2023-04-07T06:03:11;97278.72;;;6.55;100.00
5284;BME280;15377;48.540;9.268;2023-04-07T06:05:37;97262.28;;;6.46;100.00
5284;BME280;15377;48.540;9.268;2023-04-07T06:08:07;97272.94;;;6.53;100.00
5284;BME280;15377;48.540;9.268;2023-04-07T06:10:32;97278.00;;;6.63;100.00
5284;BME280;15377;48.540;9.268;2023-04-07T06:12:58;97282.75;;;6.72;100.00
5284;BME280;15377;48.540;9.268;2023-04-07T06:15:23;97277.00;;;6.79;100.00
5284;BME280;15377;48.540;9.268;2023-04-07T06:17:48;97270.84;;;6.96;100.00
5284;BME280;15377;48.540;9.268;2023-04-07T06:20:14;97278.66;;;7.07;100.00
5284;BME280;15377;48.540;9.268;2023-04-07T06:22:39;97283.22;;;7.18;100.00
5284;BME280;15377;48.540;9.268;2023-04-07T06:25:05;97272.44;;;7.15;100.00
5284;BME280;15377;48.540;9.268;2023-04-07T06:27:31;97282.81;;;7.29;100.00
5284;BME280;15377;48.540;9.268;2023-04-07T06:29:57;97276.25;;;7.26;100.00
5284;BME280;15377;48.540;9.268;2023-04-07T06:32:22;97288.78;;;7.45;100.00
5284;BME280;15377;48.540;9.268;2023-04-07T06:34:48;97279.34;;;7.46;100.00
5284;BME280;15377;48.540;9.268;2023-04-07T06:37:13;97275.09;;;7.54;100.00
5284;BME280;15377;48.540;9.268;2023-04-07T06:39:40;97284.84;;;7.64;100.00
5284;BME280;15377;48.540;9.268;2023-04-07T06:42:06;97294.44;;;7.78;100.00
5284;BME280;15377;48.540;9.268;2023-04-07T06:44:31;97274.06;;;7.79;100.00
5284;BME280;15377;48.540;9.268;2023-04-07T06:46:56;97278.78;;;7.87;100.00
5284;BME280;15377;48.540;9.268;2023-04-07T06:49:22;97266.59;;;7.88;100.00
5284;BME280;15377;48.540;9.268;2023-04-07T06:51:47;97279.97;;;8.13;100.00
5284;BME280;15377;48.540;9.268;2023-04-07T06:54:13;97280.59;;;8.17;100.00
5284;BME280;15377;48.540;9.268;2023-04-07T06:56:42;97284.41;;;8.29;100.00
5284;BME280;15377;48.540;9.268;2023-04-07T06:59:08;97274.78;;;8.42;100.00
5284;BME280;15377;48.540;9.268;2023-04-07T07:01:33;97288.31;;;8.55;100.00
5284;BME280;15377;48.540;9.268;2023-04-07T07:03:59;97282.31;;;8.74;100.00
5284;BME280;15377;48.540;9.268;2023-04-07T07:06:25;97281.97;;;8.90;100.00
5284;BME280;15377;48.540;9.268;2023-04-07T07:08:51;97281.25;;;9.13;100.00
5284;BME280;15377;48.540;9.268;2023-04-07T07:11:17;97275.16;;;9.18;100.00
5284;BME280;15377;48.540;9.268;2023-04-07T07:13:42;97297.56;;;9.49;100.00
5284;BME280;15377;48.540;9.268;2023-04-07T07:16:09;97306.13;;;9.66;100.00
5284;BME280;15377;48.540;9.268;2023-04-07T07:18:34;97305.78;;;9.73;100.00
5284;BME280;15377;48.540;9.268;2023-04-07T07:21:01;97296.09;;;9.63;100.00
5284;BME280;15377;48.540;9.268;2023-04-07T07:23:26;97300.75;;;9.71;100.00
5284;BME280;15377;48.540;9.268;2023-04-07T07:25:51;97306.91;;;9.66;100.00
5284;BME280;15377;48.540;9.268;2023-04-07T07:28:17;97305.69;;;9.67;100.00
5284;BME280;15377;48.540;9.268;2023-04-07T07:30:42;97301.06;;;9.73;100.00
5284;BME280;15377;48.540;9.268;2023-04-07T07:33:08;97290.81;;;9.74;100.00
5284;BME280;15377;48.540;9.268;2023-04-07T07:35:33;97290.53;;;9.95;100.00
5284;BME280;15377;48.540;9.268;2023-04-07T07:38:00;97296.78;;;10.19;100.00
5284;BME280;15377;48.540;9.268;2023-04-07T07:40:25;97294.38;;;10.12;100.00
5284;BME280;15377;48.540;9.268;2023-04-07T07:42:50;97300.16;;;10.14;100.00
5284;BME280;15377;48.540;9.268;2023-04-07T07:45:19;97293.34;;;10.24;100.00
5284;BME280;15377;48.540;9.268;2023-04-07T07:47:44;97300.69;;;10.56;100.00
5284;BME280;15377;48.540;9.268;2023-04-07T07:50:10;97306.75;;;10.89;100.00
5284;BME280;15377;48.540;9.268;2023-04-07T07:52:35;97300.88;;;11.10;100.00
5284;BME280;15377;48.540;9.268;2023-04-07T07:55:01;97300.63;;;11.28;100.00
5284;BME280;15377;48.540;9.268;2023-04-07T07:57:26;97307.22;;;11.51;100.00
5284;BME280;15377;48.540;9.268;2023-04-07T07:59:52;97300.38;;;11.46;100.00
5284;BME280;15377;48.540;9.268;2023-04-07T08:02:17;97299.25;;;11.53;100.00
5284;BME280;15377;48.540;9.268;2023-04-07T08:04:43;97295.22;;;11.68;100.00
5284;BME280;15377;48.540;9.268;2023-04-07T08:07:08;97298.47;;;11.87;100.00
5284;BME280;15377;48.540;9.268;2023-04-07T08:09:36;97298.59;;;12.18;100.00
5284;BME280;15377;48.540;9.268;2023-04-07T08:12:02;97305.97;;;12.52;100.00
5284;BME280;15377;48.540;9.268;2023-04-07T08:14:28;97297.84;;;12.43;100.00
5284;BME280;15377;48.540;9.268;2023-04-07T08:16:53;97287.59;;;12.43;100.00
5284;BME280;15377;48.540;9.268;2023-04-07T08:19:18;97298.28;;;12.61;100.00
5284;BME280;15377;48.540;9.268;2023-04-07T08:21:44;97304.13;;;12.69;100.00
5284;BME280;15377;48.540;9.268;2023-04-07T08:24:09;97306.06;;;12.37;100.00
5284;BME280;15377;48.540;9.268;2023-04-07T08:26:35;97311.03;;;12.33;100.00
5284;BME280;15377;48.540;9.268;2023-04-07T08:29:00;97314.88;;;12.16;100.00
5284;BME280;15377;48.540;9.268;2023-04-07T08:31:26;97315.03;;;12.32;100.00
5284;BME280;15377;48.540;9.268;2023-04-07T08:33:53;97307.53;;;12.33;100.00
5284;BME280;15377;48.540;9.268;2023-04-07T08:36:25;97312.50;;;12.29;100.00
5284;BME280;15377;48.540;9.268;2023-04-07T08:38:52;97304.25;;;12.09;100.00
5284;BME280;15377;48.540;9.268;2023-04-07T08:41:23;97316.78;;;11.90;100.00
5284;BME280;15377;48.540;9.268;2023-04-07T08:43:51;97307.56;;;11.93;100.00
5284;BME280;15377;48.540;9.268;2023-04-07T08:46:20;97314.59;;;11.94;100.00
5284;BME280;15377;48.540;9.268;2023-04-07T08:48:50;97311.28;;;11.90;100.00
5284;BME280;15377;48.540;9.268;2023-04-07T08:51:27;97319.19;;;12.02;100.00
5284;BME280;15377;48.540;9.268;2023-04-07T08:54:10;97327.75;;;12.24;100.00
5284;BME280;15377;48.540;9.268;2023-04-07T08:56:37;97326.00;;;12.47;100.00
5284;BME280;15377;48.540;9.268;2023-04-07T08:59:06;97320.25;;;12.50;100.00
5284;BME280;15377;48.540;9.268;2023-04-07T09:01:33;97320.13;;;12.59;100.00
5284;BME280;15377;48.540;9.268;2023-04-07T09:04:01;97322.94;;;12.65;100.00
5284;BME280;15377;48.540;9.268;2023-04-07T09:06:31;97318.31;;;12.56;100.00
5284;BME280;15377;48.540;9.268;2023-04-07T09:08:57;97321.91;;;12.88;100.00
5284;BME280;15377;48.540;9.268;2023-04-07T09:11:23;97325.22;;;13.23;100.00
5284;BME280;15377;48.540;9.268;2023-04-07T09:13:49;97316.25;;;13.75;100.00
5284;BME280;15377;48.540;9.268;2023-04-07T09:16:15;97319.72;;;14.07;100.00
5284;BME280;15377;48.540;9.268;2023-04-07T09:18:40;97321.38;;;14.41;100.00
5284;BME280;15377;48.540;9.268;2023-04-07T09:21:06;97292.00;;;14.87;100.00
5284;BME280;15377;48.540;9.268;2023-04-07T09:23:34;97302.06;;;15.28;100.00
5284;BME280;15377;48.540;9.268;2023-04-07T09:26:22;97318.16;;;15.85;99.82
5284;BME280;15377;48.540;9.268;2023-04-07T09:28:53;97329.03;;;15.66;97.79
5284;BME280;15377;48.540;9.268;2023-04-07T09:31:21;97324.50;;;14.81;96.18
5284;BME280;15377;48.540;9.268;2023-04-07T09:33:49;97321.66;;;13.90;100.00
5284;BME280;15377;48.540;9.268;2023-04-07T09:36:15;97318.88;;;13.48;100.00
5284;BME280;15377;48.540;9.268;2023-04-07T09:38:42;97328.25;;;13.25;100.00
5284;BME280;15377;48.540;9.268;2023-04-07T09:41:15;97333.81;;;12.99;100.00
5284;BME280;15377;48.540;9.268;2023-04-07T09:43:42;97323.00;;;12.96;100.00
5284;BME280;15377;48.540;9.268;2023-04-07T09:46:18;97312.13;;;13.54;100.00
5284;BME280;15377;48.540;9.268;2023-04-07T09:48:44;97315.75;;;16.79;97.01
5284;BME280;15377;48.540;9.268;2023-04-07T09:51:16;97318.06;;;19.72;71.43
5284;BME280;15377;48.540;9.268;2023-04-07T09:53:49;97312.16;;;21.54;61.52
5284;BME280;15377;48.540;9.268;2023-04-07T09:56:17;97306.25;;;22.92;53.90
5284;BME280;15377;48.540;9.268;2023-04-07T09:58:46;97304.16;;;23.95;49.78
5284;BME280;15377;48.540;9.268;2023-04-07T10:01:13;97291.69;;;25.29;44.23
5284;BME280;15377;48.540;9.268;2023-04-07T10:03:40;97298.50;;;25.11;39.72
5284;BME280;15377;48.540;9.268;2023-04-07T10:06:06;97299.72;;;24.61;42.09
5284;BME280;15377;48.540;9.268;2023-04-07T10:08:37;97300.22;;;25.46;39.19
5284;BME280;15377;48.540;9.268;2023-04-07T10:11:07;97300.91;;;24.90;37.99
5284;BME280;15377;48.540;9.268;2023-04-07T10:13:35;97287.16;;;24.94;38.10
5284;BME280;15377;48.540;9.268;2023-04-07T10:16:05;97299.63;;;23.84;40.10
5284;BME280;15377;48.540;9.268;2023-04-07T10:18:35;97308.44;;;22.71;42.47
5284;BME280;15377;48.540;9.268;2023-04-07T10:21:06;97294.53;;;21.94;42.40
5284;BME280;15377;48.540;9.268;2023-04-07T10:26:24;97293.09;;;19.35;52.46
5284;BME280;15377;48.540;9.268;2023-04-07T10:28:54;97295.81;;;18.35;54.17
5284;BME280;15377;48.540;9.268;2023-04-07T10:31:22;97295.75;;;17.98;56.54
5284;BME280;15377;48.540;9.268;2023-04-07T10:33:50;97304.97;;;17.64;59.29
5284;BME280;15377;48.540;9.268;2023-04-07T10:36:17;97291.91;;;17.77;57.95
5284;BME280;15377;48.540;9.268;2023-04-07T10:43:59;97295.78;;;17.69;61.15
5284;BME280;15377;48.540;9.268;2023-04-07T10:49:14;97301.91;;;17.38;61.86
5284;BME280;15377;48.540;9.268;2023-04-07T10:51:41;97295.13;;;16.98;64.11
5284;BME280;15377;48.540;9.268;2023-04-07T10:54:22;97306.41;;;16.76;66.37
5284;BME280;15377;48.540;9.268;2023-04-07T10:59:28;97302.44;;;17.36;62.02
5284;BME280;15377;48.540;9.268;2023-04-07T11:04:42;97269.94;;;16.85;63.96
5284;BME280;15377;48.540;9.268;2023-04-07T11:07:09;97295.31;;;16.71;64.99
5284;BME280;15377;48.540;9.268;2023-04-07T11:09:35;97280.22;;;16.04;66.39
5284;BME280;15377;48.540;9.268;2023-04-07T11:12:00;97290.53;;;16.14;68.10
5284;BME280;15377;48.540;9.268;2023-04-07T11:14:26;97302.16;;;16.18;64.73
5284;BME280;15377;48.540;9.268;2023-04-07T11:16:52;97293.56;;;16.16;66.15
5284;BME280;15377;48.540;9.268;2023-04-07T11:19:18;97295.09;;;16.12;67.99
5284;BME280;15377;48.540;9.268;2023-04-07T11:21:43;97288.00;;;16.16;67.89
5284;BME280;15377;48.540;9.268;2023-04-07T11:24:09;97292.91;;;16.56;69.13
5284;BME280;15377;48.540;9.268;2023-04-07T11:26:39;97294.19;;;16.50;66.67
5284;BME280;15377;48.540;9.268;2023-04-07T11:29:06;97293.19;;;16.47;67.81
5284;BME280;15377;48.540;9.268;2023-04-07T11:31:32;97297.75;;;16.45;64.63
5284;BME280;15377;48.540;9.268;2023-04-07T11:34:03;97297.06;;;16.22;65.32
5284;BME280;15377;48.540;9.268;2023-04-07T11:36:39;97299.41;;;16.07;63.16
5284;BME280;15377;48.540;9.268;2023-04-07T11:39:17;97289.84;;;15.97;65.74
5284;BME280;15377;48.540;9.268;2023-04-07T11:41:47;97279.63;;;15.59;68.84
5284;BME280;15377;48.540;9.268;2023-04-07T11:44:13;97300.84;;;15.40;70.66
5284;BME280;15377;48.540;9.268;2023-04-07T11:46:58;97301.56;;;15.13;72.88
5284;BME280;15377;48.540;9.268;2023-04-07T11:49:26;97283.09;;;14.34;79.45
5284;BME280;15377;48.540;9.268;2023-04-07T11:52:04;97293.50;;;13.49;82.60
5284;BME280;15377;48.540;9.268;2023-04-07T11:54:45;97311.22;;;13.01;84.72
5284;BME280;15377;48.540;9.268;2023-04-07T11:57:25;97308.41;;;12.70;85.58
5284;BME280;15377;48.540;9.268;2023-04-07T11:59:50;97310.59;;;12.60;86.42
5284;BME280;15377;48.540;9.268;2023-04-07T12:02:30;97323.28;;;12.78;89.93
5284;BME280;15377;48.540;9.268;2023-04-07T12:04:56;97313.25;;;13.00;87.44
5284;BME280;15377;48.540;9.268;2023-04-07T12:07:21;97315.56;;;12.82;85.51
5284;BME280;15377;48.540;9.268;2023-04-07T12:09:47;97327.00;;;12.95;86.85
5284;BME280;15377;48.540;9.268;2023-04-07T12:12:13;97303.69;;;13.01;88.47
5284;BME280;15377;48.540;9.268;2023-04-07T12:14:38;97321.91;;;13.50;85.88
5284;BME280;15377;48.540;9.268;2023-04-07T12:17:03;97316.84;;;13.43;86.47
5284;BME280;15377;48.540;9.268;2023-04-07T12:19:30;97316.50;;;13.35;88.58
5284;BME280;15377;48.540;9.268;2023-04-07T12:21:59;97304.50;;;13.38;89.60
5284;BME280;15377;48.540;9.268;2023-04-07T12:24:25;97326.31;;;13.73;86.14
5284;BME280;15377;48.540;9.268;2023-04-07T12:26:51;97327.38;;;13.81;86.94
5284;BME280;15377;48.540;9.268;2023-04-07T12:29:17;97335.72;;;13.86;90.04
5284;BME280;15377;48.540;9.268;2023-04-07T12:31:44;97349.34;;;14.01;92.27
5284;BME280;15377;48.540;9.268;2023-04-07T12:34:09;97337.00;;;13.96;91.01
5284;BME280;15377;48.540;9.268;2023-04-07T12:36:34;97333.22;;;13.94;91.98
5284;BME280;15377;48.540;9.268;2023-04-07T12:39:00;97340.94;;;14.21;87.85
5284;BME280;15377;48.540;9.268;2023-04-07T12:41:25;97338.69;;;14.30;90.58
5284;BME280;15377;48.540;9.268;2023-04-07T12:43:51;97343.69;;;14.21;86.79
5284;BME280;15377;48.540;9.268;2023-04-07T12:46:18;97347.38;;;14.65;87.03
5284;BME280;15377;48.540;9.268;2023-04-07T12:48:43;97354.91;;;14.65;83.53
5284;BME280;15377;48.540;9.268;2023-04-07T12:51:09;97339.09;;;14.81;82.64
5284;BME280;15377;48.540;9.268;2023-04-07T12:53:34;97323.88;;;14.39;86.40
5284;BME280;15377;48.540;9.268;2023-04-07T12:56:00;97350.13;;;14.60;84.10
5284;BME280;15377;48.540;9.268;2023-04-07T12:58:25;97344.53;;;14.49;87.78
5284;BME280;15377;48.540;9.268;2023-04-07T13:00:51;97353.41;;;14.11;86.49
5284;BME280;15377;48.540;9.268;2023-04-07T13:03:17;97348.03;;;13.85;89.06
5284;BME280;15377;48.540;9.268;2023-04-07T13:05:43;97338.06;;;13.62;90.60
5284;BME280;15377;48.540;9.268;2023-04-07T13:08:08;97351.63;;;13.29;95.37
5284;BME280;15377;48.540;9.268;2023-04-07T13:10:34;97354.53;;;13.46;95.99
5284;BME280;15377;48.540;9.268;2023-04-07T13:12:59;97360.94;;;13.63;97.57
5284;BME280;15377;48.540;9.268;2023-04-07T13:15:25;97352.44;;;13.72;96.31
5284;BME280;15377;48.540;9.268;2023-04-07T13:17:52;97358.38;;;13.96;98.09
5284;BME280;15377;48.540;9.268;2023-04-07T13:20:17;97354.63;;;13.99;94.33
5284;BME280;15377;48.540;9.268;2023-04-07T13:22:42;97344.34;;;14.05;94.88
5284;BME280;15377;48.540;9.268;2023-04-07T13:25:08;97346.97;;;14.19;94.82
5284;BME280;15377;48.540;9.268;2023-04-07T13:27:33;97348.94;;;14.19;94.38
5284;BME280;15377;48.540;9.268;2023-04-07T13:29:58;97349.53;;;14.34;93.28
5284;BME280;15377;48.540;9.268;2023-04-07T13:32:24;97344.00;;;14.34;91.77